PWSweather.com
Personal Weather Stations
Station Observations
DW6359
Southwest Cambria, Cambria, WI 53923

Southwest CambriaCambria, WI 53923

Lat: 43.541194, Lon: -89.11275

Elevation: 945

Station Type: Davis Vantage Pro2

http://home.centurytel.net/weathercambria/wxcambria.html

Latest ConditionsUpdated 11:35:11 AM CST Tuesday, Nov 12, 2019
Currently Today's Max Today's Min Today's Average
Temperature 15.2°F-9.3°C 15.2°F-9.3°C 5.2°F-14.9°C 8.5°F-13.1°C
Dew Point 2.4°F-16.4°C 3.2°F-16.0°C 0.1°F-17.7°C 1.2°F-17.1°C
Winds 5.0 mph WNW8.0 kmh WNW 15.0 mph -24.1 kmh - - 6.4 mph 10.3 kmh
Wind Gusts -- 20.0 mph32.2 kmh - -
Humidity 56% 80% 55% 72%
Pressure 30.58 in1035.6 mb 30.64 in1037.6 mb 30.57 in1035.2 mb -
Hour Temp Dew Point Humidity Winds Wind Gusts Pressure Precip Precip Rate Daily Precip Total
11:35 AM 15.2°F-9.3°C 2.4°F-16.4°C 56% 5.0 mph WNW8.0 kmh WNW -- 30.58 in1035.6 mb 0.00 in0.0 mm 0.00 in0.0 mm 0.00 in0.0 mm
11:30 AM 15.2°F-9.3°C 2.4°F-16.4°C 56% 1.0 mph NW1.6 kmh NW -- 30.58 in1035.6 mb 0.00 in0.0 mm 0.00 in0.0 mm 0.00 in0.0 mm
11:25 AM 14.9°F-9.5°C 1.7°F-16.8°C 55% 5.0 mph NW8.0 kmh NW -- 30.59 in1035.9 mb 0.00 in0.0 mm 0.00 in0.0 mm 0.00 in0.0 mm
11:20 AM 14.8°F-9.6°C 2.0°F-16.7°C 56% 8.0 mph W12.9 kmh W -- 30.59 in1035.9 mb 0.00 in0.0 mm 0.00 in0.0 mm 0.00 in0.0 mm
11:15 AM 15.0°F-9.4°C 2.9°F-16.2°C 58% 8.0 mph W12.9 kmh W -- 30.59 in1035.9 mb 0.00 in0.0 mm 0.00 in0.0 mm 0.00 in0.0 mm
11:10 AM 14.7°F-9.6°C 3.0°F-16.1°C 59% 5.0 mph WSW8.0 kmh WSW -- 30.59 in1035.9 mb 0.00 in0.0 mm 0.00 in0.0 mm 0.00 in0.0 mm
11:05 AM 14.6°F-9.7°C 2.9°F-16.2°C 59% 4.0 mph NW6.4 kmh NW 10.0 mph16.1 kmh 30.60 in1036.2 mb 0.00 in0.0 mm 0.00 in0.0 mm 0.00 in0.0 mm
11:00 AM 14.4°F-9.8°C 2.7°F-16.3°C 59% 4.0 mph NW6.4 kmh NW 10.0 mph16.1 kmh 30.60 in1036.2 mb 0.00 in0.0 mm 0.00 in0.0 mm 0.00 in0.0 mm
10:55 AM 14.2°F-9.9°C 2.2°F-16.6°C 58% 7.0 mph WNW11.3 kmh WNW -- 30.60 in1036.2 mb 0.00 in0.0 mm 0.00 in0.0 mm 0.00 in0.0 mm
10:50 AM 14.2°F-9.9°C 2.5°F-16.4°C 59% 8.0 mph NW12.9 kmh NW -- 30.60 in1036.2 mb 0.00 in0.0 mm 0.00 in0.0 mm 0.00 in0.0 mm
10:45 AM 14.1°F-9.9°C 2.8°F-16.2°C 60% 6.0 mph WSW9.7 kmh WSW -- 30.60 in1036.2 mb 0.00 in0.0 mm 0.00 in0.0 mm 0.00 in0.0 mm
10:40 AM 14.1°F-9.9°C 3.2°F-16.0°C 61% 4.0 mph W6.4 kmh W -- 30.61 in1036.6 mb 0.00 in0.0 mm 0.00 in0.0 mm 0.00 in0.0 mm
10:35 AM 13.8°F-10.1°C 2.9°F-16.2°C 61% 6.0 mph W9.7 kmh W -- 30.61 in1036.6 mb 0.00 in0.0 mm 0.00 in0.0 mm 0.00 in0.0 mm
10:30 AM 13.6°F-10.2°C 2.7°F-16.3°C 61% 6.0 mph W9.7 kmh W -- 30.61 in1036.6 mb 0.00 in0.0 mm 0.00 in0.0 mm 0.00 in0.0 mm
10:25 AM 13.4°F-10.3°C 2.5°F-16.4°C 61% 6.0 mph W9.7 kmh W -- 30.61 in1036.6 mb 0.00 in0.0 mm 0.00 in0.0 mm 0.00 in0.0 mm
10:20 AM 13.4°F-10.3°C 2.8°F-16.2°C 62% 6.0 mph WNW9.7 kmh WNW -- 30.61 in1036.6 mb 0.00 in0.0 mm 0.00 in0.0 mm 0.00 in0.0 mm
10:15 AM 13.2°F-10.4°C 2.7°F-16.3°C 62% 5.0 mph W8.0 kmh W 11.0 mph17.7 kmh 30.62 in1036.9 mb 0.00 in0.0 mm 0.00 in0.0 mm 0.00 in0.0 mm
10:10 AM 13.0°F-10.6°C 2.1°F-16.6°C 61% 5.0 mph NW8.0 kmh NW 11.0 mph17.7 kmh 30.62 in1036.9 mb 0.00 in0.0 mm 0.00 in0.0 mm 0.00 in0.0 mm
10:05 AM 12.9°F-10.6°C 2.4°F-16.4°C 62% 2.0 mph WNW3.2 kmh WNW -- 30.62 in1036.9 mb 0.00 in0.0 mm 0.00 in0.0 mm 0.00 in0.0 mm
10:00 AM 12.8°F-10.7°C 2.6°F-16.3°C 63% 5.0 mph NW8.0 kmh NW -- 30.62 in1036.9 mb 0.00 in0.0 mm 0.00 in0.0 mm 0.00 in0.0 mm
09:55 AM 12.7°F-10.7°C 2.9°F-16.2°C 64% 7.0 mph WNW11.3 kmh WNW -- 30.62 in1036.9 mb 0.00 in0.0 mm 0.00 in0.0 mm 0.00 in0.0 mm
09:50 AM 12.3°F-10.9°C 2.1°F-16.6°C 63% 4.0 mph NW6.4 kmh NW -- 30.63 in1037.3 mb 0.00 in0.0 mm 0.00 in0.0 mm 0.00 in0.0 mm
09:45 AM 12.2°F-11.0°C 2.0°F-16.7°C 63% 4.0 mph NW6.4 kmh NW -- 30.63 in1037.3 mb 0.00 in0.0 mm 0.00 in0.0 mm 0.00 in0.0 mm
09:40 AM 12.2°F-11.0°C 2.4°F-16.4°C 64% 6.0 mph NW9.7 kmh NW -- 30.63 in1037.3 mb 0.00 in0.0 mm 0.00 in0.0 mm 0.00 in0.0 mm
09:35 AM 11.9°F-11.2°C 2.1°F-16.6°C 64% 4.0 mph WSW6.4 kmh WSW -- 30.63 in1037.3 mb 0.00 in0.0 mm 0.00 in0.0 mm 0.00 in0.0 mm
09:30 AM 12.0°F-11.1°C 2.5°F-16.4°C 65% 10.0 mph W16.1 kmh W -- 30.63 in1037.3 mb 0.00 in0.0 mm 0.00 in0.0 mm 0.00 in0.0 mm
09:25 AM 11.8°F-11.2°C 2.3°F-16.5°C 65% 8.0 mph WNW12.9 kmh WNW 11.0 mph17.7 kmh 30.63 in1037.3 mb 0.00 in0.0 mm 0.00 in0.0 mm 0.00 in0.0 mm
09:20 AM 11.7°F-11.3°C 2.2°F-16.6°C 65% 6.0 mph NW9.7 kmh NW 11.0 mph17.7 kmh 30.63 in1037.3 mb 0.00 in0.0 mm 0.00 in0.0 mm 0.00 in0.0 mm
09:15 AM 11.5°F-11.4°C 2.4°F-16.4°C 66% 2.0 mph NW3.2 kmh NW -- 30.63 in1037.3 mb 0.00 in0.0 mm 0.00 in0.0 mm 0.00 in0.0 mm
09:10 AM 11.3°F-11.5°C 2.2°F-16.6°C 66% 9.0 mph WNW14.5 kmh WNW -- 30.63 in1037.3 mb 0.00 in0.0 mm 0.00 in0.0 mm 0.00 in0.0 mm
09:05 AM 11.2°F-11.6°C 2.4°F-16.4°C 67% 6.0 mph WNW9.7 kmh WNW -- 30.63 in1037.3 mb 0.00 in0.0 mm 0.00 in0.0 mm 0.00 in0.0 mm
09:00 AM 11.0°F-11.7°C 2.5°F-16.4°C 68% 4.0 mph WNW6.4 kmh WNW -- 30.63 in1037.3 mb 0.00 in0.0 mm 0.00 in0.0 mm 0.00 in0.0 mm
08:55 AM 10.8°F-11.8°C 2.3°F-16.5°C 68% 5.0 mph WNW8.0 kmh WNW -- 30.64 in1037.6 mb 0.00 in0.0 mm 0.00 in0.0 mm 0.00 in0.0 mm
08:50 AM 10.5°F-11.9°C 2.1°F-16.6°C 68% 7.0 mph NW11.3 kmh NW -- 30.63 in1037.3 mb 0.00 in0.0 mm 0.00 in0.0 mm 0.00 in0.0 mm
08:45 AM 10.3°F-12.1°C 2.5°F-16.4°C 70% 3.0 mph NNW4.8 kmh NNW -- 30.64 in1037.6 mb 0.00 in0.0 mm 0.00 in0.0 mm 0.00 in0.0 mm
08:40 AM 9.9°F-12.3°C 2.1°F-16.6°C 70% 4.0 mph WNW6.4 kmh WNW -- 30.64 in1037.6 mb 0.00 in0.0 mm 0.00 in0.0 mm 0.00 in0.0 mm
08:35 AM 9.7°F-12.4°C 1.9°F-16.7°C 70% 5.0 mph W8.0 kmh W 11.0 mph17.7 kmh 30.64 in1037.6 mb 0.00 in0.0 mm 0.00 in0.0 mm 0.00 in0.0 mm
08:30 AM 9.4°F-12.6°C 1.9°F-16.7°C 71% 6.0 mph W9.7 kmh W 11.0 mph17.7 kmh 30.64 in1037.6 mb 0.00 in0.0 mm 0.00 in0.0 mm 0.00 in0.0 mm
08:25 AM 9.3°F-12.6°C 2.1°F-16.6°C 72% 6.0 mph WNW9.7 kmh WNW -- 30.64 in1037.6 mb 0.00 in0.0 mm 0.00 in0.0 mm 0.00 in0.0 mm
08:20 AM 9.0°F-12.8°C 1.8°F-16.8°C 72% 8.0 mph NW12.9 kmh NW -- 30.64 in1037.6 mb 0.00 in0.0 mm 0.00 in0.0 mm 0.00 in0.0 mm
08:15 AM 8.7°F-12.9°C 1.6°F-16.9°C 72% 6.0 mph NW9.7 kmh NW -- 30.64 in1037.6 mb 0.00 in0.0 mm 0.00 in0.0 mm 0.00 in0.0 mm
08:10 AM 8.6°F-13.0°C 1.8°F-16.8°C 73% 6.0 mph NW9.7 kmh NW -- 30.64 in1037.6 mb 0.00 in0.0 mm 0.00 in0.0 mm 0.00 in0.0 mm
08:05 AM 8.6°F-13.0°C 1.8°F-16.8°C 73% 4.0 mph NW6.4 kmh NW -- 30.64 in1037.6 mb 0.00 in0.0 mm 0.00 in0.0 mm 0.00 in0.0 mm
08:00 AM 8.3°F-13.2°C 1.5°F-16.9°C 73% 5.0 mph NW8.0 kmh NW -- 30.64 in1037.6 mb 0.00 in0.0 mm 0.00 in0.0 mm 0.00 in0.0 mm
07:55 AM 8.2°F-13.2°C 1.7°F-16.8°C 74% 5.0 mph WNW8.0 kmh WNW -- 30.64 in1037.6 mb 0.00 in0.0 mm 0.00 in0.0 mm 0.00 in0.0 mm
07:50 AM 8.1°F-13.3°C 1.6°F-16.9°C 74% 4.0 mph WNW6.4 kmh WNW -- 30.64 in1037.6 mb 0.00 in0.0 mm 0.00 in0.0 mm 0.00 in0.0 mm
07:45 AM 8.0°F-13.3°C 1.7°F-16.8°C 75% 7.0 mph WSW11.3 kmh WSW 13.0 mph20.9 kmh 30.64 in1037.6 mb 0.00 in0.0 mm 0.00 in0.0 mm 0.00 in0.0 mm
07:40 AM 7.7°F-13.5°C 1.5°F-16.9°C 75% 7.0 mph NW11.3 kmh NW 13.0 mph20.9 kmh 30.64 in1037.6 mb 0.00 in0.0 mm 0.00 in0.0 mm 0.00 in0.0 mm
07:35 AM 7.6°F-13.6°C 1.4°F-17.0°C 75% 5.0 mph NW8.0 kmh NW -- 30.64 in1037.6 mb 0.00 in0.0 mm 0.00 in0.0 mm 0.00 in0.0 mm
07:30 AM 7.3°F-13.7°C 1.4°F-17.0°C 76% 9.0 mph WNW14.5 kmh WNW -- 30.64 in1037.6 mb 0.00 in0.0 mm 0.00 in0.0 mm 0.00 in0.0 mm
07:25 AM 7.2°F-13.8°C 1.3°F-17.1°C 76% 5.0 mph WNW8.0 kmh WNW -- 30.64 in1037.6 mb 0.00 in0.0 mm 0.00 in0.0 mm 0.00 in0.0 mm
07:20 AM 7.1°F-13.8°C 1.4°F-17.0°C 77% 6.0 mph W9.7 kmh W -- 30.64 in1037.6 mb 0.00 in0.0 mm 0.00 in0.0 mm 0.00 in0.0 mm
07:15 AM 6.9°F-13.9°C 1.2°F-17.1°C 77% 7.0 mph NW11.3 kmh NW -- 30.64 in1037.6 mb 0.00 in0.0 mm 0.00 in0.0 mm 0.00 in0.0 mm
07:10 AM 6.8°F-14.0°C 1.4°F-17.0°C 78% 7.0 mph W11.3 kmh W -- 30.64 in1037.6 mb 0.00 in0.0 mm 0.00 in0.0 mm 0.00 in0.0 mm
07:05 AM 6.6°F-14.1°C 1.2°F-17.1°C 78% 5.0 mph WNW8.0 kmh WNW -- 30.64 in1037.6 mb 0.00 in0.0 mm 0.00 in0.0 mm 0.00 in0.0 mm
07:00 AM 6.4°F-14.2°C 1.0°F-17.2°C 78% 5.0 mph WNW8.0 kmh WNW -- 30.64 in1037.6 mb 0.00 in0.0 mm 0.00 in0.0 mm 0.00 in0.0 mm
06:55 AM 6.3°F-14.3°C 0.9°F-17.3°C 78% 8.0 mph NW12.9 kmh NW 10.0 mph16.1 kmh 30.64 in1037.6 mb 0.00 in0.0 mm 0.00 in0.0 mm 0.00 in0.0 mm
06:50 AM 6.2°F-14.3°C 1.1°F-17.2°C 79% 7.0 mph WNW11.3 kmh WNW 10.0 mph16.1 kmh 30.64 in1037.6 mb 0.00 in0.0 mm 0.00 in0.0 mm 0.00 in0.0 mm
06:45 AM 6.0°F-14.4°C 0.9°F-17.3°C 79% 3.0 mph W4.8 kmh W -- 30.64 in1037.6 mb 0.00 in0.0 mm 0.00 in0.0 mm 0.00 in0.0 mm
06:40 AM 5.8°F-14.6°C 0.7°F-17.4°C 79% 4.0 mph NW6.4 kmh NW -- 30.64 in1037.6 mb 0.00 in0.0 mm 0.00 in0.0 mm 0.00 in0.0 mm
06:35 AM 5.7°F-14.6°C 0.9°F-17.3°C 80% 3.0 mph WNW4.8 kmh WNW -- 30.64 in1037.6 mb 0.00 in0.0 mm 0.00 in0.0 mm 0.00 in0.0 mm
06:30 AM 5.5°F-14.7°C 0.7°F-17.4°C 80% 6.0 mph NW9.7 kmh NW -- 30.64 in1037.6 mb 0.00 in0.0 mm 0.00 in0.0 mm 0.00 in0.0 mm
06:25 AM 5.3°F-14.8°C 0.5°F-17.5°C 80% 4.0 mph WNW6.4 kmh WNW -- 30.64 in1037.6 mb 0.00 in0.0 mm 0.00 in0.0 mm 0.00 in0.0 mm
06:20 AM 5.3°F-14.8°C 0.2°F-17.7°C 79% 3.0 mph WNW4.8 kmh WNW -- 30.64 in1037.6 mb 0.00 in0.0 mm 0.00 in0.0 mm 0.00 in0.0 mm
06:15 AM 5.2°F-14.9°C 0.1°F-17.7°C 79% 5.0 mph WNW8.0 kmh WNW -- 30.63 in1037.3 mb 0.00 in0.0 mm 0.00 in0.0 mm 0.00 in0.0 mm
06:10 AM 5.3°F-14.8°C 0.2°F-17.7°C 79% 4.0 mph W6.4 kmh W -- 30.63 in1037.3 mb 0.00 in0.0 mm 0.00 in0.0 mm 0.00 in0.0 mm
06:05 AM 5.3°F-14.8°C 0.2°F-17.7°C 79% 5.0 mph WNW8.0 kmh WNW 7.0 mph11.3 kmh 30.63 in1037.3 mb 0.00 in0.0 mm 0.00 in0.0 mm 0.00 in0.0 mm
06:00 AM 5.3°F-14.8°C 0.2°F-17.7°C 79% 6.0 mph W9.7 kmh W 7.0 mph11.3 kmh 30.63 in1037.3 mb 0.00 in0.0 mm 0.00 in0.0 mm 0.00 in0.0 mm
05:55 AM 5.3°F-14.8°C 0.2°F-17.7°C 79% 3.0 mph WNW4.8 kmh WNW -- 30.63 in1037.3 mb 0.00 in0.0 mm 0.00 in0.0 mm 0.00 in0.0 mm
05:50 AM 5.3°F-14.8°C 0.2°F-17.7°C 79% 4.0 mph WNW6.4 kmh WNW -- 30.63 in1037.3 mb 0.00 in0.0 mm 0.00 in0.0 mm 0.00 in0.0 mm
05:45 AM 5.3°F-14.8°C 0.2°F-17.7°C 79% 6.0 mph WNW9.7 kmh WNW -- 30.62 in1036.9 mb 0.00 in0.0 mm 0.00 in0.0 mm 0.00 in0.0 mm
05:40 AM 5.3°F-14.8°C 0.2°F-17.7°C 79% 4.0 mph WNW6.4 kmh WNW -- 30.62 in1036.9 mb 0.00 in0.0 mm 0.00 in0.0 mm 0.00 in0.0 mm
05:35 AM 5.4°F-14.8°C 0.3°F-17.6°C 79% 3.0 mph WNW4.8 kmh WNW -- 30.62 in1036.9 mb 0.00 in0.0 mm 0.00 in0.0 mm 0.00 in0.0 mm
05:30 AM 5.5°F-14.7°C 0.4°F-17.6°C 79% 8.0 mph W12.9 kmh W -- 30.62 in1036.9 mb 0.00 in0.0 mm 0.00 in0.0 mm 0.00 in0.0 mm
05:25 AM 5.6°F-14.7°C 0.5°F-17.5°C 79% 3.0 mph WNW4.8 kmh WNW -- 30.62 in1036.9 mb 0.00 in0.0 mm 0.00 in0.0 mm 0.00 in0.0 mm
05:20 AM 5.6°F-14.7°C 0.3°F-17.6°C 78% 5.0 mph WNW8.0 kmh WNW -- 30.62 in1036.9 mb 0.00 in0.0 mm 0.00 in0.0 mm 0.00 in0.0 mm
05:15 AM 5.6°F-14.7°C 0.3°F-17.6°C 78% 3.0 mph WNW4.8 kmh WNW 8.0 mph12.9 kmh 30.62 in1036.9 mb 0.00 in0.0 mm 0.00 in0.0 mm 0.00 in0.0 mm
05:10 AM 5.7°F-14.6°C 0.3°F-17.6°C 78% 3.0 mph NW4.8 kmh NW 8.0 mph12.9 kmh 30.62 in1036.9 mb 0.00 in0.0 mm 0.00 in0.0 mm 0.00 in0.0 mm
05:05 AM 5.8°F-14.6°C 0.4°F-17.6°C 78% 5.0 mph W8.0 kmh W -- 30.62 in1036.9 mb 0.00 in0.0 mm 0.00 in0.0 mm 0.00 in0.0 mm
05:00 AM 5.9°F-14.5°C 0.5°F-17.5°C 78% 2.0 mph WNW3.2 kmh WNW -- 30.62 in1036.9 mb 0.00 in0.0 mm 0.00 in0.0 mm 0.00 in0.0 mm
04:55 AM 5.9°F-14.5°C 0.3°F-17.6°C 77% 4.0 mph WNW6.4 kmh WNW -- 30.62 in1036.9 mb 0.00 in0.0 mm 0.00 in0.0 mm 0.00 in0.0 mm
04:50 AM 6.0°F-14.4°C 0.4°F-17.6°C 77% 3.0 mph WNW4.8 kmh WNW -- 30.62 in1036.9 mb 0.00 in0.0 mm 0.00 in0.0 mm 0.00 in0.0 mm
04:45 AM 6.1°F-14.4°C 0.5°F-17.5°C 77% 4.0 mph W6.4 kmh W -- 30.62 in1036.9 mb 0.00 in0.0 mm 0.00 in0.0 mm 0.00 in0.0 mm
04:40 AM 6.2°F-14.3°C 0.6°F-17.4°C 77% 4.0 mph W6.4 kmh W -- 30.62 in1036.9 mb 0.00 in0.0 mm 0.00 in0.0 mm 0.00 in0.0 mm
04:35 AM 6.2°F-14.3°C 0.6°F-17.4°C 77% 3.0 mph W4.8 kmh W -- 30.62 in1036.9 mb 0.00 in0.0 mm 0.00 in0.0 mm 0.00 in0.0 mm
04:30 AM 6.3°F-14.3°C 0.4°F-17.6°C 76% 3.0 mph WNW4.8 kmh WNW -- 30.62 in1036.9 mb 0.00 in0.0 mm 0.00 in0.0 mm 0.00 in0.0 mm
04:25 AM 6.4°F-14.2°C 0.5°F-17.5°C 76% 2.0 mph NW3.2 kmh NW 12.0 mph19.3 kmh 30.62 in1036.9 mb 0.00 in0.0 mm 0.00 in0.0 mm 0.00 in0.0 mm
04:20 AM 6.5°F-14.2°C 0.6°F-17.4°C 76% 5.0 mph NW8.0 kmh NW 12.0 mph19.3 kmh 30.62 in1036.9 mb 0.00 in0.0 mm 0.00 in0.0 mm 0.00 in0.0 mm
04:15 AM 6.5°F-14.2°C 0.6°F-17.4°C 76% 6.0 mph NW9.7 kmh NW -- 30.61 in1036.6 mb 0.00 in0.0 mm 0.00 in0.0 mm 0.00 in0.0 mm
04:10 AM 6.5°F-14.2°C 0.6°F-17.4°C 76% 8.0 mph NW12.9 kmh NW -- 30.61 in1036.6 mb 0.00 in0.0 mm 0.00 in0.0 mm 0.00 in0.0 mm
04:05 AM 6.6°F-14.1°C 0.7°F-17.4°C 76% 10.0 mph WNW16.1 kmh WNW -- 30.61 in1036.6 mb 0.00 in0.0 mm 0.00 in0.0 mm 0.00 in0.0 mm
04:00 AM 6.7°F-14.1°C 0.8°F-17.3°C 76% 8.0 mph NW12.9 kmh NW -- 30.60 in1036.2 mb 0.00 in0.0 mm 0.00 in0.0 mm 0.00 in0.0 mm
03:55 AM 6.7°F-14.1°C 0.8°F-17.3°C 76% 8.0 mph NW12.9 kmh NW -- 30.61 in1036.6 mb 0.00 in0.0 mm 0.00 in0.0 mm 0.00 in0.0 mm
03:50 AM 6.8°F-14.0°C 0.9°F-17.3°C 76% 10.0 mph NW16.1 kmh NW -- 30.61 in1036.6 mb 0.00 in0.0 mm 0.00 in0.0 mm 0.00 in0.0 mm
03:45 AM 6.8°F-14.0°C 0.6°F-17.4°C 75% 5.0 mph NW8.0 kmh NW -- 30.60 in1036.2 mb 0.00 in0.0 mm 0.00 in0.0 mm 0.00 in0.0 mm
03:40 AM 5.7°F-14.6°C 0.3°F-17.6°C 78% 6.0 mph NW9.7 kmh NW -- 30.60 in1036.2 mb 0.00 in0.0 mm 0.00 in0.0 mm 0.00 in0.0 mm
03:35 AM 5.7°F-14.6°C 0.3°F-17.6°C 78% 8.0 mph NW12.9 kmh NW 12.0 mph19.3 kmh 30.61 in1036.6 mb 0.00 in0.0 mm 0.00 in0.0 mm 0.00 in0.0 mm
03:30 AM 5.8°F-14.6°C 0.2°F-17.7°C 77% 8.0 mph NW12.9 kmh NW 12.0 mph19.3 kmh 30.61 in1036.6 mb 0.00 in0.0 mm 0.00 in0.0 mm 0.00 in0.0 mm
03:25 AM 5.9°F-14.5°C 0.3°F-17.6°C 77% 7.0 mph WNW11.3 kmh WNW -- 30.61 in1036.6 mb 0.00 in0.0 mm 0.00 in0.0 mm 0.00 in0.0 mm
03:20 AM 6.0°F-14.4°C 0.4°F-17.6°C 77% 6.0 mph W9.7 kmh W -- 30.60 in1036.2 mb 0.00 in0.0 mm 0.00 in0.0 mm 0.00 in0.0 mm
03:15 AM 6.0°F-14.4°C 0.4°F-17.6°C 77% 9.0 mph WNW14.5 kmh WNW -- 30.60 in1036.2 mb 0.00 in0.0 mm 0.00 in0.0 mm 0.00 in0.0 mm
03:10 AM 6.1°F-14.4°C 0.5°F-17.5°C 77% 5.0 mph NW8.0 kmh NW -- 30.60 in1036.2 mb 0.00 in0.0 mm 0.00 in0.0 mm 0.00 in0.0 mm
03:05 AM 6.2°F-14.3°C 0.3°F-17.6°C 76% 13.0 mph NW20.9 kmh NW -- 30.60 in1036.2 mb 0.00 in0.0 mm 0.00 in0.0 mm 0.00 in0.0 mm
03:00 AM 6.2°F-14.3°C 0.3°F-17.6°C 76% 6.0 mph NW9.7 kmh NW -- 30.60 in1036.2 mb 0.00 in0.0 mm 0.00 in0.0 mm 0.00 in0.0 mm
02:55 AM 6.3°F-14.3°C 0.4°F-17.6°C 76% 5.0 mph NW8.0 kmh NW -- 30.60 in1036.2 mb 0.00 in0.0 mm 0.00 in0.0 mm 0.00 in0.0 mm
02:50 AM 6.3°F-14.3°C 0.4°F-17.6°C 76% 13.0 mph NW20.9 kmh NW -- 30.60 in1036.2 mb 0.00 in0.0 mm 0.00 in0.0 mm 0.00 in0.0 mm
02:45 AM 6.4°F-14.2°C 0.5°F-17.5°C 76% 12.0 mph NW19.3 kmh NW 13.0 mph20.9 kmh 30.60 in1036.2 mb 0.00 in0.0 mm 0.00 in0.0 mm 0.00 in0.0 mm
02:40 AM 6.4°F-14.2°C 0.5°F-17.5°C 76% 12.0 mph WNW19.3 kmh WNW 13.0 mph20.9 kmh 30.60 in1036.2 mb 0.00 in0.0 mm 0.00 in0.0 mm 0.00 in0.0 mm
02:35 AM 6.5°F-14.2°C 0.3°F-17.6°C 75% 4.0 mph NW6.4 kmh NW -- 30.60 in1036.2 mb 0.00 in0.0 mm 0.00 in0.0 mm 0.00 in0.0 mm
02:30 AM 6.6°F-14.1°C 0.4°F-17.6°C 75% 5.0 mph NNW8.0 kmh NNW -- 30.60 in1036.2 mb 0.00 in0.0 mm 0.00 in0.0 mm 0.00 in0.0 mm
02:25 AM 6.7°F-14.1°C 0.5°F-17.5°C 75% 7.0 mph NW11.3 kmh NW -- 30.60 in1036.2 mb 0.00 in0.0 mm 0.00 in0.0 mm 0.00 in0.0 mm
02:20 AM 6.8°F-14.0°C 0.3°F-17.6°C 74% 5.0 mph NW8.0 kmh NW -- 30.60 in1036.2 mb 0.00 in0.0 mm 0.00 in0.0 mm 0.00 in0.0 mm
02:15 AM 6.9°F-13.9°C 0.4°F-17.6°C 74% 6.0 mph WNW9.7 kmh WNW -- 30.59 in1035.9 mb 0.00 in0.0 mm 0.00 in0.0 mm 0.00 in0.0 mm
02:10 AM 6.9°F-13.9°C 0.4°F-17.6°C 74% 14.0 mph NW22.5 kmh NW -- 30.59 in1035.9 mb 0.00 in0.0 mm 0.00 in0.0 mm 0.00 in0.0 mm
02:05 AM 7.1°F-13.8°C 0.3°F-17.6°C 73% 9.0 mph NW14.5 kmh NW -- 30.59 in1035.9 mb 0.00 in0.0 mm 0.00 in0.0 mm 0.00 in0.0 mm
02:00 AM 7.1°F-13.8°C 0.3°F-17.6°C 73% 9.0 mph NW14.5 kmh NW -- 30.59 in1035.9 mb 0.00 in0.0 mm 0.00 in0.0 mm 0.00 in0.0 mm
01:55 AM 8.2°F-13.2°C 1.1°F-17.2°C 72% 7.0 mph W11.3 kmh W 12.0 mph19.3 kmh 30.60 in1036.2 mb 0.00 in0.0 mm 0.00 in0.0 mm 0.00 in0.0 mm
01:50 AM 8.1°F-13.3°C 1.0°F-17.2°C 72% 3.0 mph WNW4.8 kmh WNW 12.0 mph19.3 kmh 30.59 in1035.9 mb 0.00 in0.0 mm 0.00 in0.0 mm 0.00 in0.0 mm
01:45 AM 8.3°F-13.2°C 1.2°F-17.1°C 72% 5.0 mph NW8.0 kmh NW -- 30.59 in1035.9 mb 0.00 in0.0 mm 0.00 in0.0 mm 0.00 in0.0 mm
01:40 AM 8.3°F-13.2°C 0.9°F-17.3°C 71% 4.0 mph NW6.4 kmh NW -- 30.59 in1035.9 mb 0.00 in0.0 mm 0.00 in0.0 mm 0.00 in0.0 mm
01:35 AM 8.5°F-13.1°C 1.1°F-17.2°C 71% 8.0 mph WNW12.9 kmh WNW -- 30.59 in1035.9 mb 0.00 in0.0 mm 0.00 in0.0 mm 0.00 in0.0 mm
01:30 AM 8.5°F-13.1°C 1.1°F-17.2°C 71% 14.0 mph NW22.5 kmh NW -- 30.59 in1035.9 mb 0.00 in0.0 mm 0.00 in0.0 mm 0.00 in0.0 mm
01:25 AM 8.5°F-13.1°C 0.8°F-17.3°C 70% 11.0 mph WNW17.7 kmh WNW -- 30.59 in1035.9 mb 0.00 in0.0 mm 0.00 in0.0 mm 0.00 in0.0 mm
01:20 AM 8.5°F-13.1°C 1.1°F-17.2°C 71% 10.0 mph NW16.1 kmh NW -- 30.59 in1035.9 mb 0.00 in0.0 mm 0.00 in0.0 mm 0.00 in0.0 mm
01:15 AM 8.6°F-13.0°C 0.9°F-17.3°C 70% 7.0 mph NW11.3 kmh NW -- 30.59 in1035.9 mb 0.00 in0.0 mm 0.00 in0.0 mm 0.00 in0.0 mm
01:10 AM 8.7°F-12.9°C 1.0°F-17.2°C 70% 9.0 mph NW14.5 kmh NW -- 30.59 in1035.9 mb 0.00 in0.0 mm 0.00 in0.0 mm 0.00 in0.0 mm
01:05 AM 8.7°F-12.9°C 0.6°F-17.4°C 69% 10.0 mph NW16.1 kmh NW 15.0 mph24.1 kmh 30.59 in1035.9 mb 0.00 in0.0 mm 0.00 in0.0 mm 0.00 in0.0 mm
01:00 AM 8.9°F-12.8°C 0.8°F-17.3°C 69% 12.0 mph WNW19.3 kmh WNW 15.0 mph24.1 kmh 30.59 in1035.9 mb 0.00 in0.0 mm 0.00 in0.0 mm 0.00 in0.0 mm
12:55 AM 8.9°F-12.8°C 0.8°F-17.3°C 69% 9.0 mph WNW14.5 kmh WNW -- 30.59 in1035.9 mb 0.00 in0.0 mm 0.00 in0.0 mm 0.00 in0.0 mm
12:50 AM 9.0°F-12.8°C 0.9°F-17.3°C 69% 8.0 mph WNW12.9 kmh WNW -- 30.59 in1035.9 mb 0.00 in0.0 mm 0.00 in0.0 mm 0.00 in0.0 mm
12:45 AM 9.0°F-12.8°C 0.6°F-17.4°C 68% 9.0 mph NW14.5 kmh NW -- 30.58 in1035.6 mb 0.00 in0.0 mm 0.00 in0.0 mm 0.00 in0.0 mm
12:40 AM 9.1°F-12.7°C 0.7°F-17.4°C 68% 12.0 mph WNW19.3 kmh WNW -- 30.58 in1035.6 mb 0.00 in0.0 mm 0.00 in0.0 mm 0.00 in0.0 mm
12:35 AM 9.1°F-12.7°C 1.0°F-17.2°C 69% 8.0 mph NW12.9 kmh NW -- 30.59 in1035.9 mb 0.00 in0.0 mm 0.00 in0.0 mm 0.00 in0.0 mm
12:30 AM 9.2°F-12.7°C 0.8°F-17.3°C 68% 11.0 mph NW17.7 kmh NW -- 30.59 in1035.9 mb 0.00 in0.0 mm 0.00 in0.0 mm 0.00 in0.0 mm
12:25 AM 8.1°F-13.3°C 0.4°F-17.6°C 70% 10.0 mph NW16.1 kmh NW -- 30.59 in1035.9 mb 0.00 in0.0 mm 0.00 in0.0 mm 0.00 in0.0 mm
12:20 AM 8.2°F-13.2°C 0.5°F-17.5°C 70% 13.0 mph NW20.9 kmh NW -- 30.59 in1035.9 mb 0.00 in0.0 mm 0.00 in0.0 mm 0.00 in0.0 mm
12:15 AM 8.2°F-13.2°C 0.5°F-17.5°C 70% 10.0 mph NW16.1 kmh NW 20.0 mph32.2 kmh 30.58 in1035.6 mb 0.00 in0.0 mm 0.00 in0.0 mm 0.00 in0.0 mm
12:10 AM 8.3°F-13.2°C 0.6°F-17.4°C 70% 11.0 mph NW17.7 kmh NW 20.0 mph32.2 kmh 30.58 in1035.6 mb 0.00 in0.0 mm 0.00 in0.0 mm 0.00 in0.0 mm
12:05 AM 8.4°F-13.1°C 0.4°F-17.6°C 69% 11.0 mph NW17.7 kmh NW -- 30.58 in1035.6 mb 0.00 in0.0 mm 0.00 in0.0 mm 0.00 in0.0 mm
12:00 AM 8.4°F-13.1°C 0.4°F-17.6°C 69% 15.0 mph WNW24.1 kmh WNW -- 30.57 in1035.2 mb 0.00 in0.0 mm 0.00 in0.0 mm 0.00 in0.0 mm